Time;durP1;ratioP1;P1;durP2;ratioP2;P2;SDS_P1;SDS_P2;PMS_P1;PMS_P2;Temp;Humidity;BMP_temperature;BMP_pressure;BME280_temperature;BME280_humidity;BME280_pressure;Samples;Min_cycle;Max_cycle;Signal;HPM_P1;HPM_P2
2023/06/11 00:01:29;;;;;;;13.50;8.67;;;17.00;77.80;;;;;;5093342;28;20032;-87
2023/06/11 00:03:57;;;;;;;13.55;7.72;;;17.00;77.80;;;;;;5076624;28;20097;-88
2023/06/11 00:06:25;;;;;;;15.07;8.85;;;17.00;77.90;;;;;;5110408;28;20040;-88
2023/06/11 00:08:54;;;;;;;13.60;8.70;;;16.90;78.30;;;;;;5094308;28;20127;-88
2023/06/11 00:11:22;;;;;;;16.20;8.82;;;16.80;78.40;;;;;;5076732;28;20469;-87
2023/06/11 00:13:50;;;;;;;12.83;8.10;;;16.80;78.60;;;;;;5092970;28;20055;-87
2023/06/11 00:16:17;;;;;;;13.10;8.43;;;16.90;78.60;;;;;;5091832;28;20108;-88
2023/06/11 00:18:45;;;;;;;13.70;8.10;;;17.00;78.40;;;;;;5074602;28;20528;-88
2023/06/11 00:21:13;;;;;;;13.38;8.15;;;17.00;78.10;;;;;;5076292;28;20490;-88
2023/06/11 00:23:41;;;;;;;12.48;7.85;;;17.00;78.10;;;;;;5076177;28;20093;-88
2023/06/11 00:26:08;;;;;;;12.40;8.53;;;17.10;77.80;;;;;;5069858;28;20036;-88
2023/06/11 00:28:38;;;;;;;14.57;8.98;;;17.10;77.50;;;;;;5076740;28;20048;-88
2023/06/11 00:31:05;;;;;;;15.77;8.55;;;17.10;77.60;;;;;;5075737;28;20064;-88
2023/06/11 00:33:33;;;;;;;16.45;9.57;;;17.10;77.70;;;;;;5076189;28;20074;-88
2023/06/11 00:36:01;;;;;;;16.95;10.00;;;17.10;77.70;;;;;;5074164;28;20553;-88
2023/06/11 00:38:29;;;;;;;14.50;8.90;;;17.10;77.60;;;;;;5076120;28;20071;-88
2023/06/11 00:40:57;;;;;;;13.95;9.02;;;17.10;77.80;;;;;;5088558;28;20101;-88
2023/06/11 00:43:24;;;;;;;14.93;9.52;;;17.00;78.30;;;;;;5073428;28;20093;-88
2023/06/11 00:45:51;;;;;;;15.63;9.07;;;17.00;78.70;;;;;;5092617;28;20044;-88
2023/06/11 00:48:20;;;;;;;16.02;8.82;;;16.90;78.80;;;;;;5092613;28;20067;-88
2023/06/11 00:50:51;;;;;;;14.23;9.90;;;16.90;79.00;;;;;;5074459;28;20040;-88
2023/06/11 00:53:21;;;;;;;15.85;9.25;;;16.80;79.20;;;;;;5092235;28;20078;-88
2023/06/11 00:55:49;;;;;;;14.75;8.82;;;16.70;79.50;;;;;;5089286;28;20454;-88
2023/06/11 00:58:17;;;;;;;13.25;9.00;;;16.60;79.70;;;;;;5091387;28;20047;-87
2023/06/11 01:00:57;;;;;;;13.90;9.18;;;16.60;79.90;;;;;;5088523;28;20044;-88
2023/06/11 01:03:27;;;;;;;13.23;9.03;;;16.60;80.00;;;;;;5092381;28;20073;-88
2023/06/11 01:06:04;;;;;;;14.73;9.48;;;16.50;80.30;;;;;;5075755;28;20417;-88
2023/06/11 01:08:38;;;;;;;16.33;10.27;;;16.50;80.50;;;;;;5075534;28;20090;-88
2023/06/11 01:11:21;;;;;;;15.68;9.63;;;16.40;80.60;;;;;;5075587;28;20093;-88
2023/06/11 01:13:52;;;;;;;14.57;9.93;;;16.20;81.20;;;;;;5091400;28;20135;-88
2023/06/11 01:16:37;;;;;;;14.93;9.93;;;16.20;81.30;;;;;;5092390;28;20052;-88
2023/06/11 01:19:16;;;;;;;18.42;10.63;;;16.30;81.40;;;;;;5090685;28;20101;-88
2023/06/11 01:21:56;;;;;;;14.75;9.30;;;16.30;81.30;;;;;;5087935;28;20059;-88
2023/06/11 01:24:42;;;;;;;16.42;10.50;;;16.30;81.00;;;;;;5073033;28;20044;-88
2023/06/11 01:27:33;;;;;;;15.02;10.07;;;16.30;81.10;;;;;;5074026;28;20040;-88
2023/06/11 01:30:03;;;;;;;20.27;11.67;;;16.20;81.30;;;;;;5089923;28;20138;-87
2023/06/11 01:32:31;;;;;;;14.93;10.18;;;16.20;81.40;;;;;;5075421;28;20087;-87
2023/06/11 01:35:03;;;;;;;16.45;10.20;;;16.20;81.50;;;;;;5090846;28;20044;-88
2023/06/11 01:37:44;;;;;;;14.95;10.40;;;16.20;81.40;;;;;;5073350;28;20055;-88
2023/06/11 01:40:14;;;;;;;17.30;10.65;;;16.10;81.40;;;;;;5073083;28;20048;-88
2023/06/11 01:42:47;;;;;;;15.83;10.63;;;16.10;81.50;;;;;;5075812;28;20039;-87
2023/06/11 01:45:16;;;;;;;18.17;11.25;;;16.10;81.70;;;;;;5074736;28;20040;-88
2023/06/11 01:47:49;;;;;;;15.93;9.70;;;16.10;81.60;;;;;;5091668;28;20036;-87
2023/06/11 01:50:17;;;;;;;15.48;11.07;;;16.10;81.70;;;;;;5090401;28;20497;-88
2023/06/11 01:52:45;;;;;;;17.58;11.65;;;16.10;81.50;;;;;;5091121;28;20043;-88
2023/06/11 01:55:12;;;;;;;16.80;11.00;;;16.10;81.60;;;;;;5091209;28;20123;-88
2023/06/11 01:57:40;;;;;;;16.00;10.90;;;16.00;81.70;;;;;;5074629;28;20040;-88
2023/06/11 02:00:10;;;;;;;17.02;10.50;;;16.10;81.70;;;;;;5090488;28;20066;-87
2023/06/11 02:02:46;;;;;;;17.38;11.30;;;16.10;81.60;;;;;;5090976;28;20394;-87
2023/06/11 02:05:16;;;;;;;16.73;10.48;;;16.00;81.70;;;;;;5074475;28;20453;-87
2023/06/11 02:07:43;;;;;;;16.53;10.53;;;16.00;81.60;;;;;;5092452;28;20136;-88
2023/06/11 02:10:10;;;;;;;17.73;11.25;;;16.10;81.20;;;;;;5095414;28;20462;-87
2023/06/11 02:12:37;;;;;;;17.23;10.68;;;16.10;81.20;;;;;;5094966;28;20610;-87
2023/06/11 02:15:06;;;;;;;18.75;10.73;;;16.10;81.10;;;;;;5078146;28;20101;-87
2023/06/11 02:17:33;;;;;;;15.50;10.57;;;16.20;80.80;;;;;;5077450;28;20054;-87
2023/06/11 02:20:00;;;;;;;17.17;10.83;;;16.20;80.70;;;;;;5094863;28;20047;-87
2023/06/11 02:22:27;;;;;;;17.92;10.80;;;16.10;80.80;;;;;;5077661;28;20036;-87
2023/06/11 02:24:55;;;;;;;15.05;10.50;;;16.10;81.10;;;;;;5074502;28;20044;-87
2023/06/11 02:27:22;;;;;;;16.65;10.63;;;16.10;81.00;;;;;;5094078;28;20047;-87
2023/06/11 02:29:50;;;;;;;17.95;11.50;;;16.10;81.10;;;;;;5077407;28;20059;-87
2023/06/11 02:32:17;;;;;;;18.27;11.20;;;16.10;81.10;;;;;;5074440;28;20043;-87
2023/06/11 02:34:44;;;;;;;17.27;11.00;;;16.10;81.10;;;;;;5070993;28;20067;-87
2023/06/11 02:37:11;;;;;;;18.98;11.45;;;16.10;81.20;;;;;;5077029;28;20146;-87
2023/06/11 02:39:38;;;;;;;18.70;12.77;;;16.00;81.70;;;;;;5094293;28;20482;-87
2023/06/11 02:42:05;;;;;;;18.95;11.88;;;15.90;81.80;;;;;;5075070;28;20040;-87
2023/06/11 02:44:33;;;;;;;20.27;13.03;;;15.90;82.20;;;;;;5074374;28;20451;-87
2023/06/11 02:47:00;;;;;;;19.88;12.23;;;15.80;82.30;;;;;;5091703;28;20106;-87
2023/06/11 02:49:27;;;;;;;18.67;12.23;;;15.80;82.40;;;;;;5081949;28;20032;-87
2023/06/11 02:51:54;;;;;;;20.27;12.48;;;15.80;82.30;;;;;;5076415;28;20041;-88
2023/06/11 02:54:21;;;;;;;18.90;12.77;;;15.70;82.40;;;;;;5105587;28;20048;-87
2023/06/11 02:56:48;;;;;;;19.47;12.93;;;15.70;82.60;;;;;;5108074;28;20101;-87
2023/06/11 02:59:16;;;;;;;19.02;12.80;;;15.60;82.80;;;;;;5074889;28;20093;-87
2023/06/11 03:01:43;;;;;;;18.67;12.77;;;15.50;83.00;;;;;;5075175;28;20048;-87
2023/06/11 03:04:10;;;;;;;17.73;12.15;;;15.60;83.00;;;;;;5073179;28;20048;-87
2023/06/11 03:06:37;;;;;;;18.60;12.88;;;15.60;83.00;;;;;;5091732;28;20043;-87
2023/06/11 03:09:05;;;;;;;20.33;13.00;;;15.60;82.90;;;;;;5073748;28;20119;-87
2023/06/11 03:11:32;;;;;;;19.55;12.15;;;15.70;82.90;;;;;;5076101;28;20089;-87
2023/06/11 03:13:59;;;;;;;19.92;13.05;;;15.80;82.80;;;;;;5108116;28;20048;-87
2023/06/11 03:16:26;;;;;;;18.33;12.77;;;15.80;82.80;;;;;;5101616;28;20043;-87
2023/06/11 03:18:54;;;;;;;17.83;12.80;;;15.80;82.80;;;;;;5075452;28;20491;-87
2023/06/11 03:21:21;;;;;;;21.00;13.37;;;15.90;82.70;;;;;;5076353;28;20505;-87
2023/06/11 03:23:48;;;;;;;16.85;12.45;;;15.90;82.60;;;;;;5106078;28;20517;-87
2023/06/11 03:26:17;;;;;;;18.63;11.10;;;15.90;82.50;;;;;;5073779;28;20051;-87
2023/06/11 03:28:45;;;;;;;17.95;11.60;;;16.00;82.50;;;;;;5121362;27;20048;-87
2023/06/11 03:31:13;;;;;;;17.35;12.13;;;16.00;82.40;;;;;;5072645;28;20040;-87
2023/06/11 03:33:43;;;;;;;17.80;12.20;;;16.00;82.80;;;;;;5075428;28;20402;-87
2023/06/11 03:36:10;;;;;;;19.40;12.07;;;16.00;82.50;;;;;;5076302;28;20047;-87
2023/06/11 03:38:38;;;;;;;20.65;11.93;;;16.10;82.30;;;;;;5086648;28;20440;-87
2023/06/11 03:41:09;;;;;;;18.40;12.55;;;16.10;82.30;;;;;;5073541;28;20498;-87
2023/06/11 03:43:37;;;;;;;19.30;12.48;;;16.10;82.10;;;;;;5075397;28;20032;-88
2023/06/11 03:46:04;;;;;;;17.40;12.23;;;16.10;82.20;;;;;;5093033;28;20062;-88
2023/06/11 03:48:32;;;;;;;19.23;12.57;;;16.20;82.10;;;;;;5105120;28;20505;-87
2023/06/11 03:50:59;;;;;;;18.88;13.30;;;16.30;81.80;;;;;;5071339;28;20123;-88
2023/06/11 03:53:26;;;;;;;21.08;12.60;;;16.30;81.60;;;;;;5075402;28;20040;-88
2023/06/11 03:55:53;;;;;;;17.05;11.73;;;16.30;81.40;;;;;;5075031;28;20040;-88
2023/06/11 03:58:21;;;;;;;17.97;12.17;;;16.40;81.70;;;;;;5074362;28;20498;-88
2023/06/11 04:00:49;;;;;;;16.80;11.68;;;16.40;81.60;;;;;;5075465;28;20044;-88
2023/06/11 04:03:17;;;;;;;17.33;11.73;;;16.50;81.20;;;;;;5074846;28;20039;-88
2023/06/11 04:05:45;;;;;;;18.63;12.10;;;16.50;81.00;;;;;;5091672;28;20056;-88
2023/06/11 04:08:12;;;;;;;17.73;11.85;;;16.50;81.10;;;;;;5073539;28;20048;-88
2023/06/11 04:10:41;;;;;;;17.83;11.27;;;16.60;80.90;;;;;;5085860;28;20122;-88
2023/06/11 04:13:08;;;;;;;19.00;13.00;;;16.60;80.60;;;;;;5092618;28;20060;-88
2023/06/11 04:15:35;;;;;;;18.00;11.25;;;16.80;80.30;;;;;;5072530;28;20083;-88
2023/06/11 04:18:09;;;;;;;18.05;12.48;;;16.80;79.90;;;;;;5088472;28;20048;-88
2023/06/11 04:20:37;;;;;;;17.90;12.63;;;17.00;79.80;;;;;;5105019;28;20093;-88
2023/06/11 04:23:04;;;;;;;16.87;11.47;;;17.00;79.50;;;;;;5104778;28;20044;-88
2023/06/11 04:25:33;;;;;;;19.45;11.48;;;17.00;79.40;;;;;;5073048;28;20043;-88
2023/06/11 04:28:02;;;;;;;17.25;11.55;;;17.10;79.20;;;;;;5072397;28;20633;-88
2023/06/11 04:30:29;;;;;;;16.98;11.25;;;17.10;78.80;;;;;;5090977;28;20066;-88
2023/06/11 04:32:56;;;;;;;16.65;11.70;;;17.10;79.10;;;;;;5072654;28;20046;-88
2023/06/11 04:35:26;;;;;;;15.73;11.33;;;17.20;78.70;;;;;;5076124;28;20044;-88
2023/06/11 04:37:53;;;;;;;17.48;11.45;;;17.30;78.50;;;;;;5105805;28;20040;-88
2023/06/11 04:40:24;;;;;;;18.35;12.27;;;17.40;78.20;;;;;;5074191;28;20047;-87
2023/06/11 04:42:53;;;;;;;16.92;11.88;;;17.50;77.80;;;;;;5088937;28;20032;-88
2023/06/11 04:45:21;;;;;;;17.17;12.13;;;17.50;77.60;;;;;;5072936;28;20515;-88
2023/06/11 04:47:50;;;;;;;16.50;12.07;;;17.80;77.40;;;;;;5074311;28;20036;-88
2023/06/11 04:50:20;;;;;;;16.35;11.77;;;18.00;76.30;;;;;;5070586;28;20037;-88
2023/06/11 04:52:52;;;;;;;16.15;11.68;;;18.00;76.10;;;;;;5089127;28;20044;-88
2023/06/11 04:55:24;;;;;;;16.70;11.65;;;18.20;75.50;;;;;;5074977;28;20055;-88
2023/06/11 04:57:54;;;;;;;18.25;11.32;;;18.40;74.50;;;;;;5090141;28;20066;-88
2023/06/11 05:00:25;;;;;;;14.87;10.53;;;18.40;75.10;;;;;;5087287;28;20138;-88
2023/06/11 05:02:53;;;;;;;15.35;10.68;;;18.50;74.60;;;;;;5091379;28;20480;-88
2023/06/11 05:05:21;;;;;;;15.05;11.35;;;18.50;74.30;;;;;;5088831;28;20041;-88
2023/06/11 05:07:49;;;;;;;15.13;10.50;;;18.60;74.70;;;;;;5103847;28;20044;-89
2023/06/11 05:10:18;;;;;;;14.00;9.40;;;18.50;74.80;;;;;;5075150;28;20036;-88
2023/06/11 05:12:45;;;;;;;17.13;10.27;;;18.30;74.30;;;;;;5087596;28;20041;-88
2023/06/11 05:15:12;;;;;;;15.32;10.02;;;18.10;74.90;;;;;;5088927;28;20050;-89
2023/06/11 05:17:41;;;;;;;13.98;10.82;;;18.10;75.70;;;;;;5088434;28;20044;-88
2023/06/11 05:20:09;;;;;;;14.52;10.70;;;18.10;75.60;;;;;;5089474;28;20089;-88
2023/06/11 05:22:36;;;;;;;15.80;10.57;;;18.00;75.40;;;;;;5089201;28;20086;-88
2023/06/11 05:25:06;;;;;;;14.80;8.53;;;18.00;75.30;;;;;;5091422;28;20032;-89
2023/06/11 05:27:34;;;;;;;16.17;10.57;;;17.90;75.70;;;;;;5078889;28;20501;-89
2023/06/11 05:30:04;;;;;;;16.27;9.52;;;17.80;76.00;;;;;;5088995;28;20044;-88
2023/06/11 05:32:31;;;;;;;15.77;10.63;;;17.80;75.80;;;;;;5074548;28;20036;-88
2023/06/11 05:35:01;;;;;;;12.50;9.10;;;17.70;76.10;;;;;;5074604;28;20089;-88
2023/06/11 05:37:28;;;;;;;14.90;9.80;;;17.70;76.30;;;;;;5073434;28;20497;-89
2023/06/11 05:39:57;;;;;;;13.93;9.63;;;17.70;75.50;;;;;;5089128;28;20090;-88
2023/06/11 05:42:24;;;;;;;13.95;9.25;;;17.60;75.70;;;;;;5073256;28;20493;-89
2023/06/11 05:44:51;;;;;;;13.32;8.95;;;17.60;75.70;;;;;;5073490;28;20063;-89
2023/06/11 05:47:19;;;;;;;13.88;8.77;;;17.50;76.10;;;;;;5074110;28;20040;-88
2023/06/11 05:49:47;;;;;;;14.07;9.27;;;17.50;75.80;;;;;;5074737;28;20036;-89
2023/06/11 05:52:14;;;;;;;17.67;8.65;;;17.50;76.10;;;;;;5084747;28;20098;-88
2023/06/11 05:54:42;;;;;;;13.20;8.52;;;17.50;76.60;;;;;;5074692;28;20032;-88
2023/06/11 05:57:19;;;;;;;13.35;8.40;;;17.50;76.60;;;;;;5108002;28;20040;-88
2023/06/11 05:59:48;;;;;;;12.43;8.27;;;17.50;76.70;;;;;;5091187;28;20056;-89
2023/06/11 06:02:16;;;;;;;12.03;8.33;;;17.70;75.90;;;;;;5077329;28;20384;-88
2023/06/11 06:04:48;;;;;;;14.23;9.40;;;17.80;75.80;;;;;;5071972;28;20119;-88
2023/06/11 06:07:16;;;;;;;12.15;8.70;;;17.80;75.10;;;;;;5069250;28;20077;-89
2023/06/11 06:09:43;;;;;;;13.30;8.82;;;18.00;75.30;;;;;;5073537;28;20440;-88
2023/06/11 06:12:11;;;;;;;11.68;8.05;;;18.00;74.10;;;;;;5090228;28;20374;-88
2023/06/11 06:14:38;;;;;;;12.93;8.57;;;18.10;74.40;;;;;;5085118;28;20075;-89
2023/06/11 06:17:06;;;;;;;13.35;8.55;;;18.20;74.40;;;;;;5090444;28;20130;-88
2023/06/11 06:19:37;;;;;;;12.45;7.88;;;18.10;74.10;;;;;;5107845;28;20131;-88
2023/06/11 06:22:04;;;;;;;12.98;8.27;;;18.00;74.10;;;;;;5091397;28;20056;-89
2023/06/11 06:24:32;;;;;;;11.70;8.00;;;17.90;75.00;;;;;;5091571;28;20067;-88
2023/06/11 06:26:59;;;;;;;13.73;8.43;;;17.90;74.80;;;;;;5075226;28;20048;-89
2023/06/11 06:29:32;;;;;;;13.48;8.25;;;17.80;74.80;;;;;;5069273;28;20417;-89
2023/06/11 06:32:00;;;;;;;12.45;8.65;;;17.80;75.00;;;;;;5088734;28;20079;-89
2023/06/11 06:34:30;;;;;;;13.80;8.45;;;17.70;75.50;;;;;;5074869;28;20048;-88
2023/06/11 06:37:00;;;;;;;13.38;8.10;;;17.80;75.30;;;;;;5087126;28;20040;-88
2023/06/11 06:39:28;;;;;;;14.33;7.70;;;17.60;74.70;;;;;;5064644;28;20063;-88
2023/06/11 06:41:57;;;;;;;13.27;8.30;;;17.80;75.10;;;;;;5070719;28;20043;-88
2023/06/11 06:44:36;;;;;;;13.38;8.18;;;17.80;74.70;;;;;;5071116;28;20036;-89
2023/06/11 06:47:04;;;;;;;12.57;8.10;;;17.90;74.60;;;;;;5073617;28;20044;-88
2023/06/11 06:49:32;;;;;;;13.82;8.77;;;18.00;74.80;;;;;;5073480;28;20093;-88
2023/06/11 06:51:59;;;;;;;11.63;8.23;;;18.00;74.80;;;;;;5089787;28;20040;-88
2023/06/11 06:54:28;;;;;;;12.10;7.90;;;18.10;74.10;;;;;;5074526;28;20569;-88
2023/06/11 06:56:55;;;;;;;12.30;8.43;;;18.20;74.20;;;;;;5094018;28;20044;-88
2023/06/11 06:59:22;;;;;;;12.05;8.10;;;18.30;72.10;;;;;;5076490;28;20048;-89
2023/06/11 07:01:49;;;;;;;13.20;8.60;;;18.30;72.90;;;;;;5077496;28;20044;-89
2023/06/11 07:04:17;;;;;;;12.70;8.20;;;18.50;73.00;;;;;;5074599;28;20540;-89
2023/06/11 07:06:44;;;;;;;12.25;7.70;;;18.60;73.00;;;;;;5094429;28;20567;-89
2023/06/11 07:09:11;;;;;;;13.18;8.05;;;18.90;72.00;;;;;;5083075;28;20135;-89
2023/06/11 07:11:40;;;;;;;12.43;8.27;;;18.90;71.00;;;;;;5077714;28;20063;-89
2023/06/11 07:14:07;;;;;;;12.98;8.00;;;18.60;71.50;;;;;;5077822;28;20048;-89
2023/06/11 07:16:37;;;;;;;12.53;8.37;;;18.50;71.60;;;;;;5077726;28;20406;-89
2023/06/11 07:19:05;;;;;;;12.98;8.18;;;18.50;71.80;;;;;;5092601;28;20051;-88
2023/06/11 07:21:35;;;;;;;13.38;7.97;;;18.50;71.40;;;;;;5093159;28;20048;-89
2023/06/11 07:24:05;;;;;;;11.38;7.93;;;18.50;72.00;;;;;;5076453;28;20507;-89
2023/06/11 07:26:33;;;;;;;11.32;7.60;;;18.60;71.90;;;;;;5092404;28;20048;-89
2023/06/11 07:29:02;;;;;;;12.63;7.53;;;18.70;70.30;;;;;;5090825;28;20068;-89
2023/06/11 07:31:29;;;;;;;11.00;7.53;;;18.80;70.80;;;;;;5109499;28;20437;-89
2023/06/11 07:33:56;;;;;;;11.68;7.10;;;19.00;71.90;;;;;;5088601;28;20051;-88
2023/06/11 07:36:23;;;;;;;12.73;6.68;;;19.30;70.70;;;;;;5087223;28;20070;-89
2023/06/11 07:38:50;;;;;;;12.05;7.97;;;19.30;69.80;;;;;;5090739;28;20482;-87
2023/06/11 07:41:18;;;;;;;10.30;6.93;;;19.40;70.20;;;;;;5076203;28;20055;-87
2023/06/11 07:43:46;;;;;;;10.65;7.15;;;19.70;70.40;;;;;;5076658;28;20497;-90
2023/06/11 07:46:15;;;;;;;11.10;6.25;;;19.80;68.80;;;;;;5110797;28;20067;-90
2023/06/11 07:48:44;;;;;;;11.60;6.97;;;19.80;68.10;;;;;;5077385;28;20036;-89
2023/06/11 07:51:14;;;;;;;11.73;7.55;;;19.70;69.90;;;;;;5077388;28;20040;-91
2023/06/11 07:53:45;;;;;;;12.57;8.23;;;19.80;67.80;;;;;;5093811;28;20560;-89
2023/06/11 07:56:12;;;;;;;11.82;8.18;;;19.90;68.00;;;;;;5076930;28;20047;-90
2023/06/11 07:58:40;;;;;;;13.35;8.05;;;19.70;67.80;;;;;;5076664;28;20036;-89
2023/06/11 08:01:07;;;;;;;12.88;8.68;;;19.80;69.20;;;;;;5093306;28;20069;-89
2023/06/11 08:03:34;;;;;;;12.77;8.40;;;19.70;69.00;;;;;;5093303;28;20147;-89
2023/06/11 08:06:01;;;;;;;12.67;7.87;;;19.70;68.60;;;;;;5093096;28;20044;-90
2023/06/11 08:08:29;;;;;;;15.13;8.20;;;19.40;69.80;;;;;;5093813;28;20043;-90
2023/06/11 08:10:56;;;;;;;14.05;7.75;;;19.30;70.30;;;;;;5076877;28;20040;-92
2023/06/11 08:13:23;;;;;;;11.85;8.27;;;19.50;70.30;;;;;;5077358;28;20106;-91
2023/06/11 08:15:50;;;;;;;13.13;8.30;;;19.50;68.90;;;;;;5076948;28;20040;-92
2023/06/11 08:18:17;;;;;;;12.00;8.07;;;19.50;68.80;;;;;;5077408;28;20048;-92
2023/06/11 08:20:46;;;;;;;11.23;7.40;;;19.50;69.30;;;;;;5077142;28;20086;-91
2023/06/11 08:23:13;;;;;;;12.82;8.05;;;19.30;68.50;;;;;;5077229;28;20131;-92
2023/06/11 08:25:40;;;;;;;13.85;8.45;;;19.20;69.50;;;;;;5078630;28;20040;-93
2023/06/11 08:28:07;;;;;;;11.63;7.75;;;19.00;69.50;;;;;;5094500;28;20048;-93
2023/06/11 08:30:34;;;;;;;11.03;7.53;;;18.90;69.90;;;;;;5094651;28;20066;-93
2023/06/11 08:33:02;;;;;;;13.05;8.13;;;18.80;69.80;;;;;;5094642;28;20040;-93
2023/06/11 08:35:32;;;;;;;12.98;7.65;;;18.80;69.70;;;;;;5094274;28;20048;-93
2023/06/11 08:37:59;;;;;;;13.82;8.00;;;18.80;69.30;;;;;;5078244;28;20040;-94
2023/06/11 08:40:28;;;;;;;15.60;8.30;;;18.70;69.30;;;;;;5094855;28;20048;-93
2023/06/11 08:42:56;;;;;;;11.57;7.80;;;18.80;69.90;;;;;;5077233;28;20490;-93
2023/06/11 08:45:23;;;;;;;13.35;7.90;;;18.80;69.70;;;;;;5093954;28;20048;-93
2023/06/11 08:47:52;;;;;;;11.93;8.27;;;19.00;68.90;;;;;;5077120;28;20481;-92
2023/06/11 08:50:21;;;;;;;11.82;7.22;;;19.10;70.40;;;;;;5093401;28;20094;-92
2023/06/11 08:52:51;;;;;;;11.13;7.22;;;19.20;67.80;;;;;;5093434;28;20386;-92
2023/06/11 08:55:19;;;;;;;10.43;7.27;;;19.50;66.70;;;;;;5092188;28;20096;-93
2023/06/11 08:57:46;;;;;;;12.82;8.02;;;19.60;67.10;;;;;;5075986;28;20044;-91
2023/06/11 09:00:14;;;;;;;11.90;7.88;;;19.90;67.50;;;;;;5110835;28;20061;-96
2023/06/11 09:02:41;;;;;;;11.60;7.55;;;19.90;66.30;;;;;;5077544;28;20142;-91
2023/06/11 09:05:11;;;;;;;11.30;7.70;;;19.60;66.20;;;;;;5093034;28;20036;-92
2023/06/11 09:07:46;;;;;;;11.43;7.33;;;19.50;66.40;;;;;;5076731;28;20040;-91
2023/06/11 09:10:14;;;;;;;12.80;7.72;;;19.20;67.00;;;;;;5076622;28;20052;-91
2023/06/11 09:12:41;;;;;;;11.98;7.68;;;19.30;67.40;;;;;;5093678;28;20036;-93
2023/06/11 09:15:09;;;;;;;12.48;8.13;;;19.40;67.50;;;;;;5093352;28;20085;-92
2023/06/11 09:17:38;;;;;;;11.63;7.57;;;19.40;66.90;;;;;;5080397;28;20083;-91
2023/06/11 09:20:07;;;;;;;10.57;7.10;;;19.40;67.10;;;;;;5076726;28;20044;-94
2023/06/11 09:22:37;;;;;;;11.27;7.45;;;19.60;67.10;;;;;;5093013;28;20051;-92
2023/06/11 09:25:17;;;;;;;13.50;7.53;;;19.90;66.30;;;;;;5076542;28;20493;-92
2023/06/11 09:27:46;;;;;;;11.77;6.95;;;20.30;65.00;;;;;;5091420;28;20046;-93
2023/06/11 09:30:19;;;;;;;11.45;7.47;;;20.40;63.70;;;;;;5033275;28;20057;-91
2023/06/11 09:32:48;;;;;;;12.03;6.70;;;20.30;63.60;;;;;;5036885;28;20037;-92
2023/06/11 09:35:16;;;;;;;11.65;6.82;;;20.30;62.30;;;;;;5036984;28;20212;-92
2023/06/11 09:37:52;;;;;;;9.57;6.18;;;20.10;62.50;;;;;;5038876;28;20095;-92
2023/06/11 09:40:23;;;;;;;10.88;6.40;;;19.90;62.50;;;;;;5038331;28;20139;-92
2023/06/11 09:42:50;;;;;;;10.75;7.30;;;19.80;63.50;;;;;;5035559;28;20124;-92
2023/06/11 09:45:19;;;;;;;11.97;6.43;;;19.80;62.90;;;;;;5036367;28;20064;-92
2023/06/11 09:47:47;;;;;;;10.18;6.22;;;19.80;63.80;;;;;;5034099;28;20491;-94
2023/06/11 09:50:16;;;;;;;10.95;5.93;;;19.90;63.10;;;;;;5033428;28;20088;-92
2023/06/11 09:52:45;;;;;;;9.68;5.55;;;19.80;63.30;;;;;;5066666;28;20503;-92
2023/06/11 09:55:13;;;;;;;11.48;6.22;;;19.80;63.10;;;;;;5036285;28;20048;-93
2023/06/11 09:57:42;;;;;;;8.47;5.40;;;20.00;63.80;;;;;;5034164;28;20045;-93
2023/06/11 10:00:11;;;;;;;9.40;6.00;;;20.30;63.10;;;;;;5036182;28;20069;-92
2023/06/11 10:02:41;;;;;;;10.80;5.43;;;20.60;61.90;;;;;;5036494;28;20049;-92
2023/06/11 10:05:10;;;;;;;9.35;5.22;;;20.70;60.00;;;;;;5039940;28;20045;-95
2023/06/11 10:08:12;;;;;;;8.68;4.63;;;20.80;60.40;;;;;;5036273;28;20502;-93
2023/06/11 10:10:45;;;;;;;7.73;4.70;;;20.80;60.10;;;;;;5036193;28;20048;-93
2023/06/11 10:13:29;;;;;;;8.52;5.13;;;20.80;59.40;;;;;;5036380;28;20106;-93
2023/06/11 10:16:06;;;;;;;8.20;4.47;;;20.80;59.10;;;;;;5036898;28;20041;-94
2023/06/11 10:18:34;;;;;;;8.98;5.07;;;20.90;58.40;;;;;;5036964;28;20044;-93
2023/06/11 10:21:05;;;;;;;9.02;4.80;;;20.90;57.70;;;;;;5028969;28;20045;-94
2023/06/11 10:23:40;;;;;;;8.20;4.73;;;20.80;58.00;;;;;;5037190;28;20493;-94
2023/06/11 10:26:11;;;;;;;8.18;5.07;;;20.70;59.00;;;;;;5033327;28;20113;-95
2023/06/11 10:28:49;;;;;;;8.00;4.32;;;20.80;59.10;;;;;;5055302;28;20429;-96
2023/06/11 10:31:25;;;;;;;7.63;4.72;;;20.80;60.30;;;;;;5084309;28;20098;-96
2023/06/11 10:34:03;;;;;;;8.90;4.88;;;21.10;60.00;;;;;;5063725;28;20051;-96
2023/06/11 10:36:35;;;;;;;8.07;4.73;;;21.10;60.10;;;;;;5095757;28;20087;-95
2023/06/11 10:39:09;;;;;;;9.10;4.93;;;21.10;59.70;;;;;;5079248;28;20127;-96
2023/06/11 10:41:40;;;;;;;7.97;4.50;;;21.00;58.70;;;;;;5095556;28;20068;-96
2023/06/11 11:01:46;;;;;;;8.52;3.60;;;22.50;58.00;;;;;;5026071;23;20067;-95
2023/06/11 11:04:13;;;;;;;8.55;4.05;;;23.10;56.60;;;;;;4912698;29;20048;-92
2023/06/11 11:06:43;;;;;;;9.32;4.72;;;23.20;54.00;;;;;;4911279;29;20063;-96
2023/06/11 11:09:11;;;;;;;8.77;4.30;;;23.30;54.50;;;;;;4925514;29;20414;-96
2023/06/11 11:11:40;;;;;;;8.38;3.80;;;23.30;53.60;;;;;;4909419;29;20044;-96
2023/06/11 11:14:07;;;;;;;7.97;3.63;;;23.10;52.80;;;;;;4908449;29;20142;-90
2023/06/11 11:16:35;;;;;;;7.13;4.05;;;22.90;53.40;;;;;;4919145;29;20099;-90
2023/06/11 11:19:02;;;;;;;8.07;3.83;;;22.60;52.90;;;;;;4907670;29;20083;-90
2023/06/11 11:21:32;;;;;;;7.33;3.90;;;22.30;53.80;;;;;;4907455;29;20054;-89
2023/06/11 11:23:59;;;;;;;8.32;3.70;;;22.30;54.40;;;;;;4922177;29;20509;-90
2023/06/11 11:26:27;;;;;;;7.78;3.63;;;22.40;53.20;;;;;;4906490;29;20502;-90
2023/06/11 11:28:54;;;;;;;6.95;3.92;;;22.60;55.10;;;;;;4922336;29;20047;-90
2023/06/11 11:31:24;;;;;;;8.10;4.07;;;22.80;54.30;;;;;;4921915;29;20051;-90
2023/06/11 11:33:51;;;;;;;8.53;4.53;;;22.70;52.50;;;;;;4918488;29;20043;-90
2023/06/11 11:36:21;;;;;;;9.10;4.45;;;22.80;54.80;;;;;;4906322;29;20497;-91
2023/06/11 11:38:50;;;;;;;7.25;3.85;;;22.90;57.20;;;;;;4922780;29;20506;-89
2023/06/11 11:41:21;;;;;;;8.68;3.80;;;23.00;55.10;;;;;;4921695;29;20051;-91
2023/06/11 11:43:49;;;;;;;8.25;4.28;;;23.10;53.80;;;;;;4918085;29;20048;-92
2023/06/11 11:46:23;;;;;;;7.93;3.67;;;23.00;54.40;;;;;;4917801;29;20047;-91
2023/06/11 11:48:55;;;;;;;7.43;3.83;;;22.90;53.40;;;;;;4909849;29;20051;-92
2023/06/11 11:51:25;;;;;;;7.68;3.95;;;22.60;53.60;;;;;;4907167;29;20044;-95
2023/06/11 11:53:53;;;;;;;9.10;3.90;;;22.50;53.70;;;;;;4908674;29;20044;-95
2023/06/11 11:56:22;;;;;;;8.27;4.53;;;22.70;54.70;;;;;;4908558;29;20051;-95
2023/06/11 11:58:53;;;;;;;9.90;3.73;;;23.00;53.90;;;;;;4923768;29;20047;-95
2023/06/11 12:01:21;;;;;;;7.80;4.28;;;23.20;53.90;;;;;;4924237;29;20106;-94
2023/06/11 12:04:18;;;;;;;6.85;3.83;;;23.30;52.60;;;;;;4909367;29;20517;-95
2023/06/11 12:06:51;;;;;;;8.75;3.60;;;23.40;52.90;;;;;;4906894;29;20051;-94
2023/06/11 12:09:21;;;;;;;7.88;3.88;;;23.30;52.20;;;;;;4923406;29;20047;-93
2023/06/11 12:12:10;;;;;;;7.00;3.87;;;23.50;52.10;;;;;;4918933;29;20490;-94
2023/06/11 12:14:38;;;;;;;8.48;4.03;;;23.60;52.10;;;;;;4904562;29;20390;-95
2023/06/11 12:17:10;;;;;;;6.40;3.78;;;23.60;51.40;;;;;;4921913;29;20059;-94
2023/06/11 12:19:38;;;;;;;6.97;3.60;;;23.60;52.50;;;;;;4905974;29;20083;-93
2023/06/11 12:30:12;;;;;;;8.40;3.38;;;23.60;52.00;;;;;;4898069;29;20048;-93
2023/06/11 12:32:41;;;;;;;8.25;3.25;;;23.60;52.20;;;;;;4869195;29;20455;-94
2023/06/11 12:35:08;;;;;;;9.60;3.92;;;23.80;50.90;;;;;;4868987;29;20044;-94
2023/06/11 12:37:36;;;;;;;6.38;3.45;;;24.10;51.90;;;;;;4870482;29;20076;-94
2023/06/11 12:40:12;;;;;;;7.03;3.60;;;24.40;52.00;;;;;;4873096;29;20064;-93
2023/06/11 12:42:40;;;;;;;7.70;3.85;;;24.40;51.20;;;;;;4871756;29;20067;-96
2023/06/11 12:45:08;;;;;;;7.95;3.80;;;23.90;51.10;;;;;;4870843;29;20104;-93
2023/06/11 12:47:39;;;;;;;7.43;4.07;;;23.80;53.50;;;;;;4869033;29;20087;-93
2023/06/11 12:50:07;;;;;;;7.13;3.35;;;24.10;51.30;;;;;;4869168;29;20064;-94
2023/06/11 12:52:35;;;;;;;12.80;3.53;;;24.20;51.50;;;;;;4886114;29;20048;-94
2023/06/11 12:55:04;;;;;;;7.45;3.65;;;24.50;51.60;;;;;;4870101;29;20060;-95
2023/06/11 12:57:39;;;;;;;10.57;3.50;;;24.40;48.30;;;;;;4886231;29;20091;-95
2023/06/11 13:00:11;;;;;;;10.07;3.33;;;24.20;49.10;;;;;;4873942;29;20056;-93
2023/06/11 13:02:39;;;;;;;7.88;3.35;;;24.20;48.10;;;;;;4872477;29;20116;-94
2023/06/11 13:05:07;;;;;;;6.80;3.53;;;24.00;49.40;;;;;;4874219;29;20102;-94
2023/06/11 13:07:37;;;;;;;14.38;3.80;;;24.10;49.30;;;;;;4883928;29;20419;-93
2023/06/11 13:10:06;;;;;;;7.47;3.45;;;24.00;49.80;;;;;;4868713;29;20045;-94
2023/06/11 13:12:36;;;;;;;7.43;3.17;;;24.10;48.00;;;;;;4868899;29;20103;-94